createdAt,value
2018-12-06T00:00:39.767Z,8.33
2018-12-06T00:03:08.736Z,10.63
2018-12-06T00:05:37.645Z,9.47
2018-12-06T00:08:15.902Z,8.47
2018-12-06T00:10:44.861Z,9.37
2018-12-06T00:13:13.439Z,7.70
2018-12-06T00:15:42.318Z,11.50
2018-12-06T00:18:11.211Z,8.60
2018-12-06T00:20:40.166Z,8.77
2018-12-06T00:23:09.110Z,9.93
2018-12-06T00:25:38.085Z,8.50
2018-12-06T00:28:08.193Z,10.83
2018-12-06T00:30:42.195Z,12.63
2018-12-06T00:33:10.885Z,10.00
2018-12-06T00:35:39.905Z,10.87
2018-12-06T00:38:08.860Z,10.17
2018-12-06T00:40:37.805Z,8.43
2018-12-06T00:43:06.779Z,10.80
2018-12-06T00:45:35.713Z,8.80
2018-12-06T00:48:04.771Z,8.60
2018-12-06T00:50:33.704Z,11.90
2018-12-06T00:53:02.230Z,11.10
2018-12-06T00:55:31.141Z,11.30
2018-12-06T00:58:00.095Z,9.80
2018-12-06T01:00:29.012Z,9.00
2018-12-06T01:02:57.897Z,11.67
2018-12-06T01:05:26.862Z,10.93
2018-12-06T01:07:55.794Z,9.60
2018-12-06T01:10:24.739Z,11.37
2018-12-06T01:12:53.821Z,10.23
2018-12-06T01:15:22.768Z,7.83
2018-12-06T01:17:51.701Z,9.60
2018-12-06T01:20:20.642Z,8.07
2018-12-06T01:22:49.583Z,9.33
2018-12-06T01:25:18.543Z,12.70
2018-12-06T01:27:47.475Z,9.37
2018-12-06T01:30:16.433Z,7.43
2018-12-06T01:32:45.480Z,10.53
2018-12-06T01:35:14.433Z,8.60
2018-12-06T01:37:43.328Z,8.17
2018-12-06T01:40:12.293Z,8.20
2018-12-06T01:42:41.154Z,10.07
2018-12-06T01:45:10.113Z,10.57
2018-12-06T01:47:39.023Z,9.80
2018-12-06T01:50:08.202Z,8.93
2018-12-06T01:52:37.190Z,10.03
2018-12-06T01:55:06.335Z,8.90
2018-12-06T01:57:35.263Z,8.97
2018-12-06T02:00:04.862Z,7.17
2018-12-06T02:02:33.790Z,9.07
2018-12-06T02:05:02.700Z,8.33
2018-12-06T02:07:31.555Z,9.07
2018-12-06T02:10:00.496Z,8.17
2018-12-06T02:12:29.399Z,8.97
2018-12-06T02:14:58.432Z,10.50
2018-12-06T02:17:27.319Z,9.70
2018-12-06T02:19:58.831Z,9.73
2018-12-06T02:22:27.807Z,9.63
2018-12-06T02:24:56.719Z,9.93
2018-12-06T02:27:25.653Z,11.23
2018-12-06T02:29:54.823Z,10.33
2018-12-06T02:32:24.148Z,10.43
2018-12-06T02:34:53.026Z,8.87
2018-12-06T02:37:21.950Z,12.70
2018-12-06T02:39:50.876Z,10.97
2018-12-06T02:42:19.860Z,10.50
2018-12-06T02:44:48.761Z,11.73
2018-12-06T02:47:17.718Z,12.07
2018-12-06T02:49:46.652Z,10.90
2018-12-06T02:52:15.561Z,9.70
2018-12-06T02:54:44.498Z,10.63
2018-12-06T02:57:13.431Z,10.37
2018-12-06T02:59:42.388Z,10.17
2018-12-06T03:02:11.333Z,10.77
2018-12-06T03:04:40.345Z,10.20
2018-12-06T03:07:09.354Z,10.07
2018-12-06T03:09:38.248Z,14.40
2018-12-06T03:12:07.191Z,10.77
2018-12-06T03:14:36.176Z,10.93
2018-12-06T03:17:06.309Z,11.47
2018-12-06T03:19:35.313Z,12.40
2018-12-06T03:22:04.258Z,11.27
2018-12-06T03:24:33.221Z,11.67
2018-12-06T03:27:02.147Z,10.67
2018-12-06T03:29:31.048Z,10.37
2018-12-06T03:32:00.042Z,11.50
2018-12-06T03:34:28.983Z,11.47
2018-12-06T03:36:57.873Z,13.97
2018-12-06T03:39:26.802Z,12.03
2018-12-06T03:41:55.792Z,11.53
2018-12-06T03:44:24.681Z,12.70
2018-12-06T03:46:53.847Z,12.07
2018-12-06T03:49:22.782Z,12.70
2018-12-06T03:51:51.697Z,13.73
2018-12-06T03:54:20.629Z,14.43
2018-12-06T03:56:49.523Z,14.00
2018-12-06T03:59:19.005Z,16.03
2018-12-06T04:01:47.942Z,11.77
2018-12-06T04:04:16.870Z,15.03
2018-12-06T04:06:45.944Z,16.50
2018-12-06T04:09:14.838Z,13.30
2018-12-06T04:11:43.767Z,12.47
2018-12-06T04:14:12.687Z,12.70
2018-12-06T04:16:41.855Z,13.67
2018-12-06T04:19:10.777Z,12.13
2018-12-06T04:21:39.788Z,14.03
2018-12-06T04:24:08.653Z,12.30
2018-12-06T04:26:37.607Z,13.40
2018-12-06T04:29:06.558Z,12.73
2018-12-06T04:31:37.252Z,11.50
2018-12-06T04:34:08.300Z,11.50
2018-12-06T04:36:37.197Z,14.63
2018-12-06T04:39:07.780Z,11.50
2018-12-06T04:41:36.338Z,13.40
2018-12-06T04:44:05.205Z,11.10
2018-12-06T04:46:34.125Z,13.27
2018-12-06T04:49:03.088Z,11.67
2018-12-06T04:51:32.061Z,11.80
2018-12-06T04:54:01.058Z,12.13
2018-12-06T04:56:29.981Z,11.37
2018-12-06T04:58:58.893Z,11.37
2018-12-06T05:01:27.732Z,13.90
2018-12-06T05:03:56.644Z,11.67
2018-12-06T05:06:25.574Z,11.43
2018-12-06T05:08:54.502Z,12.63
2018-12-06T05:11:23.491Z,10.87
2018-12-06T05:13:52.453Z,11.37
2018-12-06T05:16:21.353Z,11.57
2018-12-06T05:18:50.257Z,13.93
2018-12-06T05:21:19.131Z,10.07
2018-12-06T05:23:48.158Z,12.43
2018-12-06T05:26:17.039Z,15.23
2018-12-06T05:28:46.166Z,14.47
2018-12-06T05:31:15.234Z,11.87
2018-12-06T05:33:44.309Z,11.93
2018-12-06T05:36:13.158Z,12.27
2018-12-06T05:38:42.190Z,14.00
2018-12-06T05:41:10.799Z,11.20
2018-12-06T05:43:40.175Z,15.27
2018-12-06T05:46:10.252Z,11.87
2018-12-06T05:48:41.267Z,10.50
2018-12-06T05:51:11.924Z,11.33
2018-12-06T05:53:40.917Z,13.13
2018-12-06T05:56:09.884Z,12.53
2018-12-06T05:58:38.997Z,16.90
2018-12-06T06:01:08.052Z,16.10
2018-12-06T06:03:36.994Z,14.43
2018-12-06T06:06:06.015Z,14.10
2018-12-06T06:08:34.707Z,15.50
2018-12-06T06:11:03.731Z,14.53
2018-12-06T06:13:32.296Z,14.57
2018-12-06T06:16:03.618Z,14.17
2018-12-06T06:18:32.679Z,11.77
2018-12-06T06:21:01.979Z,12.40
2018-12-06T06:23:31.181Z,14.53
2018-12-06T06:26:00.175Z,13.57
2018-12-06T06:28:29.289Z,18.57
2018-12-06T06:30:58.272Z,13.03
2018-12-06T06:33:26.816Z,13.63
2018-12-06T06:35:55.746Z,13.08
2018-12-06T06:38:25.042Z,13.77
2018-12-06T06:40:54.145Z,18.10
2018-12-06T06:43:23.159Z,13.77
2018-12-06T06:45:52.248Z,13.68
2018-12-06T06:48:21.206Z,14.97
2018-12-06T06:50:50.199Z,11.40
2018-12-06T06:53:19.126Z,15.60
2018-12-06T06:55:48.185Z,12.37
2018-12-06T06:58:17.100Z,14.00
2018-12-06T07:00:45.747Z,12.83
2018-12-06T07:03:14.662Z,14.53
2018-12-06T07:05:43.622Z,16.07
2018-12-06T07:08:12.559Z,14.40
2018-12-06T07:10:41.503Z,17.97
2018-12-06T07:13:10.437Z,20.27
2018-12-06T07:15:39.337Z,15.33
2018-12-06T07:18:08.294Z,17.23
2018-12-06T07:20:37.237Z,16.53
2018-12-06T07:23:06.178Z,20.37
2018-12-06T07:25:34.738Z,18.33
2018-12-06T07:28:03.605Z,19.43
2018-12-06T07:30:32.627Z,22.90
2018-12-06T07:33:01.279Z,17.20
2018-12-06T07:35:30.213Z,15.83
2018-12-06T07:37:59.180Z,17.93
2018-12-06T07:40:28.216Z,18.97
2018-12-06T07:42:58.133Z,16.53
2018-12-06T07:45:29.420Z,19.43
2018-12-06T07:47:58.985Z,16.73
2018-12-06T07:50:28.088Z,20.17
2018-12-06T07:52:57.104Z,18.43
2018-12-06T07:55:26.105Z,20.73
2018-12-06T07:57:55.126Z,19.30
2018-12-06T08:00:24.095Z,17.73
2018-12-06T08:02:53.104Z,17.97
2018-12-06T08:05:22.207Z,19.07
2018-12-06T08:07:50.809Z,20.90
2018-12-06T08:10:19.961Z,21.30
2018-12-06T08:12:48.908Z,20.90
2018-12-06T08:15:17.884Z,15.90
2018-12-06T08:17:46.504Z,15.53
2018-12-06T08:20:15.604Z,16.73
2018-12-06T08:22:44.759Z,15.23
2018-12-06T08:25:13.673Z,18.87
2018-12-06T08:27:42.288Z,16.23
2018-12-06T08:30:11.388Z,16.73
2018-12-06T08:32:40.082Z,19.33
2018-12-06T08:35:09.172Z,16.33
2018-12-06T08:37:38.659Z,14.13
2018-12-06T08:40:08.462Z,17.33
2018-12-06T08:42:37.490Z,19.77
2018-12-06T08:45:07.092Z,20.13
2018-12-06T08:47:36.173Z,20.50
2018-12-06T08:50:05.857Z,16.13
2018-12-06T08:52:34.767Z,19.63
2018-12-06T08:55:04.185Z,16.07
2018-12-06T08:57:33.503Z,14.40
2018-12-06T09:00:02.467Z,15.33
2018-12-06T09:02:31.379Z,16.83
2018-12-06T09:04:59.935Z,17.57
2018-12-06T09:07:36.641Z,15.73
2018-12-06T09:10:07.936Z,16.77
2018-12-06T09:12:36.675Z,15.07
2018-12-06T09:15:07.112Z,15.83
2018-12-06T09:17:36.158Z,13.50
2018-12-06T09:20:11.544Z,14.40
2018-12-06T09:22:41.504Z,16.90
2018-12-06T09:25:10.473Z,17.53
2018-12-06T09:27:39.370Z,14.50
2018-12-06T09:30:08.868Z,15.90
2018-12-06T09:32:37.831Z,18.03
2018-12-06T09:35:06.816Z,15.57
2018-12-06T09:37:35.673Z,16.33
2018-12-06T09:40:05.208Z,16.97
2018-12-06T09:42:34.746Z,16.63
2018-12-06T09:45:04.112Z,16.63
2018-12-06T09:47:37.553Z,16.60
2018-12-06T09:50:06.869Z,15.43
2018-12-06T09:52:35.772Z,16.43
2018-12-06T09:55:05.016Z,14.90
2018-12-06T09:57:33.920Z,14.43
2018-12-06T10:00:02.937Z,16.27
2018-12-06T10:02:32.883Z,14.23
2018-12-06T10:05:01.765Z,17.43
2018-12-06T10:07:30.377Z,13.00
2018-12-06T10:09:59.307Z,14.03
2018-12-06T10:12:29.670Z,12.30
2018-12-06T10:14:59.257Z,12.97
2018-12-06T10:17:28.183Z,14.27
2018-12-06T10:19:56.767Z,11.93
2018-12-06T10:22:26.929Z,14.07
2018-12-06T10:24:55.842Z,13.97
2018-12-06T10:27:24.414Z,16.57
2018-12-06T10:29:53.395Z,17.63
2018-12-06T10:32:22.383Z,16.57
2018-12-06T10:34:53.543Z,15.53
2018-12-06T10:37:21.818Z,16.47
2018-12-06T10:39:50.728Z,20.87
2018-12-06T10:42:19.404Z,21.30
2018-12-06T10:44:49.333Z,17.10
2018-12-06T10:47:18.911Z,23.57
2018-12-06T10:49:47.840Z,17.73
2018-12-06T10:52:16.801Z,13.97
2018-12-06T10:54:45.802Z,19.07
2018-12-06T10:57:14.775Z,20.07
2018-12-06T10:59:43.715Z,21.52
2018-12-06T11:02:18.087Z,16.33
2018-12-06T11:04:47.095Z,15.77
2018-12-06T11:07:16.067Z,15.30
2018-12-06T11:09:44.960Z,17.67
2018-12-06T11:12:14.059Z,19.03
2018-12-06T11:14:43.155Z,20.60
2018-12-06T11:17:12.086Z,15.63
2018-12-06T11:19:41.247Z,15.17
2018-12-06T11:22:18.453Z,15.30
2018-12-06T11:24:48.598Z,16.83
2018-12-06T11:27:17.491Z,14.73
2018-12-06T11:29:46.358Z,17.57
2018-12-06T11:32:15.244Z,16.73
2018-12-06T11:34:44.300Z,13.90
2018-12-06T11:37:13.940Z,15.77
2018-12-06T11:39:42.977Z,17.47
2018-12-06T11:42:12.003Z,16.00
2018-12-06T11:44:40.946Z,16.40
2018-12-06T11:47:09.945Z,13.20
2018-12-06T11:49:38.929Z,14.13
2018-12-06T11:52:07.896Z,14.03
2018-12-06T11:54:37.607Z,16.33
2018-12-06T11:57:06.462Z,13.50
2018-12-06T11:59:35.437Z,12.23
2018-12-06T12:02:10.022Z,13.90
2018-12-06T12:04:35.382Z,13.60
2018-12-06T12:07:04.320Z,16.00
2018-12-06T12:09:33.209Z,19.23
2018-12-06T12:12:02.142Z,14.97
2018-12-06T12:14:32.782Z,15.37
2018-12-06T12:17:01.804Z,16.57
2018-12-06T12:19:30.710Z,15.27
2018-12-06T12:21:59.654Z,15.07
2018-12-06T12:24:28.717Z,15.83
2018-12-06T12:26:57.710Z,16.20
2018-12-06T12:29:26.628Z,15.00
2018-12-06T12:31:55.521Z,17.33
2018-12-06T12:34:24.983Z,14.47
2018-12-06T12:36:54.028Z,14.57
2018-12-06T12:39:22.983Z,15.60
2018-12-06T12:41:52.008Z,19.37
2018-12-06T12:44:20.994Z,17.03
2018-12-06T12:46:49.952Z,17.17
2018-12-06T12:49:19.029Z,18.87
2018-12-06T12:51:48.022Z,17.17
2018-12-06T12:54:16.943Z,16.73
2018-12-06T12:56:45.989Z,24.10
2018-12-06T12:59:14.911Z,24.57
2018-12-06T13:01:43.868Z,19.97
2018-12-06T13:04:12.773Z,17.87
2018-12-06T13:06:41.689Z,15.83
2018-12-06T13:09:10.802Z,14.70
2018-12-06T13:11:39.743Z,16.20
2018-12-06T13:14:08.312Z,20.50
2018-12-06T13:16:37.241Z,18.03
2018-12-06T13:19:06.366Z,18.37
2018-12-06T13:21:34.894Z,20.87
2018-12-06T13:24:03.651Z,17.57
2018-12-06T13:26:32.215Z,18.37
2018-12-06T13:29:01.218Z,17.30
2018-12-06T13:31:30.718Z,21.13
2018-12-06T13:33:59.279Z,24.37
2018-12-06T13:36:28.197Z,17.50
2018-12-06T13:38:57.082Z,19.40
2018-12-06T13:41:25.982Z,18.23
2018-12-06T13:43:55.212Z,19.87
2018-12-06T13:46:24.134Z,17.97
2018-12-06T13:48:53.066Z,17.90
2018-12-06T13:51:21.990Z,20.90
2018-12-06T13:53:50.937Z,20.40
2018-12-06T13:56:19.852Z,21.17
2018-12-06T13:58:48.750Z,16.77
2018-12-06T14:01:17.818Z,23.50
2018-12-06T14:03:48.152Z,21.07
2018-12-06T14:06:17.027Z,20.13
2018-12-06T14:08:46.031Z,17.20
2018-12-06T14:11:14.993Z,18.80
2018-12-06T14:13:43.934Z,24.33
2018-12-06T14:16:12.863Z,18.37
2018-12-06T14:18:41.789Z,18.60
2018-12-06T14:21:10.771Z,17.97
2018-12-06T14:23:39.699Z,19.13
2018-12-06T14:26:08.633Z,20.20
2018-12-06T14:28:37.205Z,18.90
2018-12-06T14:31:06.158Z,22.53
2018-12-06T14:33:35.227Z,21.13
2018-12-06T14:36:04.165Z,21.20
2018-12-06T14:38:33.108Z,24.67
2018-12-06T14:41:02.125Z,23.83
2018-12-06T14:43:31.289Z,22.07
2018-12-06T14:46:01.377Z,21.70
2018-12-06T14:48:30.368Z,22.13
2018-12-06T14:50:59.320Z,23.83
2018-12-06T14:53:28.190Z,22.83
2018-12-06T14:55:57.061Z,21.23
2018-12-06T14:58:26.010Z,24.33
2018-12-06T15:00:54.977Z,21.47
2018-12-06T15:03:23.898Z,25.90
2018-12-06T15:05:52.990Z,28.20
2018-12-06T15:08:21.901Z,27.73
2018-12-06T15:10:50.749Z,23.37
2018-12-06T15:13:19.653Z,26.00
2018-12-06T15:15:48.597Z,24.50
2018-12-06T15:18:17.521Z,27.37
2018-12-06T15:20:46.595Z,22.10
2018-12-06T15:23:15.489Z,24.20
2018-12-06T15:25:44.399Z,27.03
2018-12-06T15:28:13.308Z,23.03
2018-12-06T15:30:42.206Z,25.57
2018-12-06T15:33:11.260Z,31.70
2018-12-06T15:35:40.193Z,27.63
2018-12-06T15:38:09.188Z,35.03
2018-12-06T15:40:38.394Z,31.60
2018-12-06T15:43:09.647Z,32.90
2018-12-06T15:45:38.624Z,33.17
2018-12-06T15:48:07.615Z,32.53
2018-12-06T15:50:36.561Z,27.70
2018-12-06T15:53:05.579Z,29.83
2018-12-06T15:55:34.704Z,46.13
2018-12-06T15:58:03.431Z,74.67
2018-12-06T16:00:32.405Z,58.43
2018-12-06T16:03:01.346Z,58.33
2018-12-06T16:05:30.360Z,51.53
2018-12-06T16:07:59.348Z,47.67
2018-12-06T16:10:28.426Z,50.87
2018-12-06T16:12:57.049Z,47.70
2018-12-06T16:15:25.993Z,55.40
2018-12-06T16:17:55.073Z,55.73
2018-12-06T16:20:23.998Z,63.37
2018-12-06T16:22:54.564Z,57.57
2018-12-06T16:25:23.623Z,53.27
2018-12-06T16:27:52.200Z,49.63
2018-12-06T16:30:21.151Z,59.53
2018-12-06T16:32:50.045Z,55.10
2018-12-06T16:35:18.993Z,54.27
2018-12-06T16:37:47.924Z,60.43
2018-12-06T16:40:16.850Z,61.33
2018-12-06T16:42:45.976Z,54.57
2018-12-06T16:45:14.938Z,57.77
2018-12-06T16:47:43.931Z,63.07
2018-12-06T16:50:12.855Z,73.40
2018-12-06T16:52:41.738Z,84.67
2018-12-06T16:55:10.660Z,68.33
2018-12-06T16:57:39.558Z,61.53
2018-12-06T17:00:12.243Z,61.50
2018-12-06T17:02:41.200Z,59.83
2018-12-06T17:05:47.505Z,45.73
2018-12-06T17:08:16.419Z,53.53
2018-12-06T17:10:45.375Z,53.50
2018-12-06T17:13:14.356Z,50.83
2018-12-06T17:15:43.319Z,47.97
2018-12-06T17:18:11.920Z,59.67
2018-12-06T17:20:40.991Z,62.63
2018-12-06T17:23:09.560Z,56.60
2018-12-06T17:25:38.576Z,53.97
2018-12-06T17:28:08.738Z,53.07
2018-12-06T17:30:37.335Z,53.93
2018-12-06T17:33:06.242Z,52.27
2018-12-06T17:35:35.146Z,55.53
2018-12-06T17:38:04.213Z,57.80
2018-12-06T17:40:33.135Z,68.97
2018-12-06T17:43:02.025Z,88.80
2018-12-06T17:45:31.044Z,82.67
2018-12-06T17:47:59.929Z,72.83
2018-12-06T17:50:28.486Z,69.63
2018-12-06T17:52:57.436Z,87.43
2018-12-06T17:55:26.419Z,80.70
2018-12-06T17:57:55.272Z,87.30
2018-12-06T18:00:24.163Z,103.83
2018-12-06T18:02:53.205Z,93.97
2018-12-06T18:05:22.111Z,74.87
2018-12-06T18:07:51.077Z,73.93
2018-12-06T18:10:20.228Z,68.07
2018-12-06T18:12:49.192Z,69.90
2018-12-06T18:15:18.385Z,64.47
2018-12-06T18:17:47.410Z,64.00
2018-12-06T18:20:16.335Z,60.07
2018-12-06T18:22:45.400Z,62.87
2018-12-06T18:25:14.320Z,57.90
2018-12-06T18:27:43.335Z,56.57
2018-12-06T18:30:12.205Z,64.73
2018-12-06T18:32:41.133Z,65.13
2018-12-06T18:35:10.060Z,61.20
2018-12-06T18:37:38.988Z,64.97
2018-12-06T18:40:07.986Z,71.23
2018-12-06T18:42:38.152Z,61.20
2018-12-06T18:45:06.909Z,60.80
2018-12-06T18:47:36.030Z,60.03
2018-12-06T18:50:05.291Z,61.43
2018-12-06T18:52:34.206Z,65.00
2018-12-06T18:55:03.400Z,62.60
2018-12-06T18:57:32.402Z,60.70
2018-12-06T19:00:01.381Z,63.27
2018-12-06T19:02:31.970Z,56.00
2018-12-06T19:05:00.892Z,58.03
2018-12-06T19:07:29.531Z,53.83
2018-12-06T19:09:58.441Z,55.33
2018-12-06T19:12:27.399Z,54.03
2018-12-06T19:14:55.922Z,75.13
2018-12-06T19:17:24.854Z,63.37
2018-12-06T19:19:53.736Z,58.10
2018-12-06T19:22:22.846Z,66.43
2018-12-06T19:24:51.792Z,72.67
2018-12-06T19:27:20.854Z,68.20
2018-12-06T19:29:49.760Z,65.37
2018-12-06T19:32:18.716Z,63.47
2018-12-06T19:34:47.555Z,58.23
2018-12-06T19:37:16.602Z,61.90
2018-12-06T19:39:45.253Z,58.27
2018-12-06T19:42:14.170Z,59.43
2018-12-06T19:44:43.314Z,66.23
2018-12-06T19:47:12.171Z,60.00
2018-12-06T19:49:41.091Z,60.97
2018-12-06T19:52:10.065Z,60.57
2018-12-06T19:54:39.045Z,61.20
2018-12-06T19:57:09.106Z,61.30
2018-12-06T19:59:38.025Z,65.13
2018-12-06T20:02:06.993Z,63.57
2018-12-06T20:04:36.465Z,65.30
2018-12-06T20:07:05.349Z,59.53
2018-12-06T20:09:34.317Z,58.30
2018-12-06T20:12:03.033Z,52.27
2018-12-06T20:14:31.983Z,53.10
2018-12-06T20:17:00.967Z,63.53
2018-12-06T20:19:30.138Z,67.43
2018-12-06T20:21:59.085Z,62.17
2018-12-06T20:24:27.683Z,62.83
2018-12-06T20:26:56.615Z,55.17
2018-12-06T20:29:25.596Z,56.93
2018-12-06T20:31:54.105Z,56.30
2018-12-06T20:34:22.743Z,57.43
2018-12-06T20:36:51.640Z,61.20
2018-12-06T20:39:20.605Z,57.63
2018-12-06T20:41:49.623Z,62.80
2018-12-06T20:44:18.601Z,56.30
2018-12-06T20:46:47.462Z,53.70
2018-12-06T20:49:16.024Z,50.27
2018-12-06T20:51:44.975Z,64.73
2018-12-06T20:54:13.951Z,58.67
2018-12-06T20:56:42.666Z,56.77
2018-12-06T20:59:11.596Z,54.17
2018-12-06T21:01:40.539Z,47.67
2018-12-06T21:04:09.443Z,47.30
2018-12-06T21:06:38.368Z,50.77
2018-12-06T21:09:06.951Z,46.43
2018-12-06T21:11:35.959Z,44.90
2018-12-06T21:14:04.877Z,46.10
2018-12-06T21:16:33.918Z,46.30
2018-12-06T21:19:02.516Z,46.87
2018-12-06T21:21:31.443Z,41.33
2018-12-06T21:24:00.353Z,47.57
2018-12-06T21:26:29.301Z,47.63
2018-12-06T21:28:57.929Z,50.63
2018-12-06T21:31:26.547Z,49.43
2018-12-06T21:33:55.700Z,49.00
2018-12-06T21:36:24.669Z,47.80
2018-12-06T21:38:55.656Z,44.13
2018-12-06T21:41:24.553Z,56.47
2018-12-06T21:43:53.570Z,58.33
2018-12-06T21:46:22.559Z,51.73
2018-12-06T21:48:51.424Z,52.67
2018-12-06T21:51:20.413Z,51.90
2018-12-06T21:53:48.965Z,54.67
2018-12-06T21:56:17.539Z,60.60
2018-12-06T21:58:46.077Z,65.03
2018-12-06T22:01:16.232Z,54.40
2018-12-06T22:03:44.907Z,66.20
2018-12-06T22:06:13.858Z,75.47
2018-12-06T22:08:42.822Z,58.07
2018-12-06T22:11:11.726Z,46.37
2018-12-06T22:13:40.342Z,46.23
2018-12-06T22:16:08.926Z,47.20
2018-12-06T22:18:37.894Z,47.10
2018-12-06T22:21:06.804Z,50.13
2018-12-06T22:23:35.719Z,51.77
2018-12-06T22:26:04.317Z,48.67
2018-12-06T22:28:34.170Z,46.23
2018-12-06T22:31:03.449Z,46.20
2018-12-06T22:33:31.998Z,49.20
2018-12-06T22:36:00.989Z,49.77
2018-12-06T22:38:34.101Z,51.50
2018-12-06T22:41:00.934Z,51.40
2018-12-06T22:43:29.871Z,56.37
2018-12-06T22:45:59.375Z,59.77
2018-12-06T22:48:29.533Z,53.33
2018-12-06T22:50:58.095Z,54.27
2018-12-06T22:53:26.701Z,55.03
2018-12-06T22:55:55.275Z,50.43
2018-12-06T22:58:24.220Z,52.60
2018-12-06T23:00:57.314Z,63.50
2018-12-06T23:03:28.047Z,60.77
2018-12-06T23:05:57.084Z,53.70
2018-12-06T23:08:26.088Z,51.63
2018-12-06T23:10:54.984Z,51.83
2018-12-06T23:13:24.989Z,53.77
2018-12-06T23:15:53.977Z,51.40
2018-12-06T23:18:22.892Z,52.53
2018-12-06T23:20:51.811Z,49.53
2018-12-06T23:23:20.683Z,47.20
2018-12-06T23:25:49.610Z,52.03
2018-12-06T23:28:18.511Z,47.03
2018-12-06T23:30:47.105Z,50.47
2018-12-06T23:33:16.018Z,52.73
2018-12-06T23:35:47.972Z,47.93
2018-12-06T23:38:16.968Z,52.43
2018-12-06T23:40:45.625Z,51.50
2018-12-06T23:43:15.676Z,54.17
2018-12-06T23:45:44.570Z,50.27
2018-12-06T23:48:13.154Z,50.30
2018-12-06T23:50:42.081Z,48.33
2018-12-06T23:53:10.592Z,49.30
2018-12-06T23:55:40.726Z,52.27
2018-12-06T23:58:09.618Z,48.70
